Time;durP1;ratioP1;P1;durP2;ratioP2;P2;SDS_P1;SDS_P2;PMS_P1;PMS_P2;Temp;Humidity;BMP_temperature;BMP_pressure;BME280_temperature;BME280_humidity;BME280_pressure;Samples;Min_cycle;Max_cycle;Signal;HPM_P1;HPM_P2
2023/06/30 00:01:48;;;;;;;13.32;7.38;;;;;;;17.87;71.95;99361.88;5049118;28;20024;-73
2023/06/30 00:04:22;;;;;;;6.30;5.70;;;;;;;18.03;71.22;99351.16;5048459;28;20021;-73
2023/06/30 00:06:49;;;;;;;7.45;5.88;;;;;;;17.87;71.69;99356.22;5034729;28;20033;-73
2023/06/30 00:09:24;;;;;;;12.27;5.95;;;;;;;17.76;72.25;99350.41;5016308;28;20025;-72
2023/06/30 00:11:52;;;;;;;6.28;5.35;;;;;;;17.80;72.43;99356.94;5016097;28;20029;-73
2023/06/30 00:14:18;;;;;;;6.50;5.82;;;;;;;17.88;72.04;99350.16;5033914;28;20033;-72
2023/06/30 00:16:44;;;;;;;8.50;5.75;;;;;;;17.99;71.33;99346.63;5039634;28;20557;-72
2023/06/30 00:19:09;;;;;;;8.55;6.50;;;;;;;17.93;71.19;99340.50;5044303;28;20048;-73
2023/06/30 00:21:35;;;;;;;8.18;6.68;;;;;;;17.77;72.22;99346.38;5015019;28;20036;-72
2023/06/30 00:24:04;;;;;;;6.45;5.57;;;;;;;17.80;72.02;99351.28;5033865;28;20540;-73
2023/06/30 00:26:33;;;;;;;6.17;5.57;;;;;;;17.82;72.01;99346.84;5015631;28;20029;-72
2023/06/30 00:29:00;;;;;;;7.53;6.40;;;;;;;17.95;71.23;99352.22;5016010;28;20504;-73
2023/06/30 00:31:25;;;;;;;9.15;6.45;;;;;;;18.00;71.11;99348.25;5034184;28;20029;-72
2023/06/30 00:33:51;;;;;;;7.93;5.70;;;;;;;18.18;70.66;99349.28;5033612;28;20105;-72
2023/06/30 00:36:16;;;;;;;10.75;6.22;;;;;;;18.20;70.40;99352.53;5044162;28;20036;-73
2023/06/30 00:38:41;;;;;;;7.68;5.72;;;;;;;18.28;69.94;99359.06;5032618;28;20063;-72
2023/06/30 00:41:07;;;;;;;11.18;6.10;;;;;;;18.21;69.88;99354.16;5033325;28;20029;-73
2023/06/30 00:43:32;;;;;;;9.85;6.13;;;;;;;17.99;70.56;99355.94;5033510;28;20033;-73
2023/06/30 00:45:58;;;;;;;10.43;6.80;;;;;;;17.89;70.87;99350.97;5016513;28;20029;-72
2023/06/30 00:48:24;;;;;;;9.10;6.60;;;;;;;18.02;70.48;99355.16;5035276;28;20028;-72
2023/06/30 00:50:49;;;;;;;7.88;6.22;;;;;;;17.91;70.35;99355.03;5047560;28;20044;-73
2023/06/30 00:53:15;;;;;;;8.95;6.10;;;;;;;17.63;71.51;99355.53;5047048;28;20021;-72
2023/06/30 00:55:41;;;;;;;7.70;6.30;;;;;;;17.44;72.50;99356.53;5051154;28;20025;-73
2023/06/30 00:58:07;;;;;;;9.05;7.10;;;;;;;17.18;73.65;99353.34;5033268;28;20025;-73
2023/06/30 01:00:32;;;;;;;9.75;6.38;;;;;;;16.96;74.67;99353.03;5032443;28;20168;-73
2023/06/30 01:03:11;;;;;;;8.70;6.88;;;;;;;16.81;75.96;99349.16;5034560;28;20120;-73
2023/06/30 01:05:52;;;;;;;9.55;6.97;;;;;;;16.77;76.20;99342.66;5052840;28;20071;-72
2023/06/30 01:08:29;;;;;;;9.07;7.10;;;;;;;16.78;76.42;99338.63;5052978;28;20021;-73
2023/06/30 01:10:56;;;;;;;12.35;7.50;;;;;;;16.66;76.89;99338.84;5032055;28;20054;-73
2023/06/30 01:13:24;;;;;;;10.52;7.10;;;;;;;16.72;76.76;99345.00;5027425;28;20025;-72
2023/06/30 01:15:52;;;;;;;12.73;7.03;;;;;;;16.74;77.20;99351.91;5015316;28;20488;-72
2023/06/30 01:18:21;;;;;;;7.95;6.70;;;;;;;16.73;77.33;99349.44;5032810;28;20029;-73
2023/06/30 01:20:48;;;;;;;7.20;6.50;;;;;;;16.62;77.72;99341.63;5014889;28;20188;-72
2023/06/30 01:23:36;;;;;;;8.73;6.47;;;;;;;16.69;77.59;99347.38;5014778;28;20508;-73
2023/06/30 01:26:03;;;;;;;9.57;6.82;;;;;;;16.70;77.46;99359.47;5028678;28;20017;-73
2023/06/30 01:28:29;;;;;;;7.93;6.85;;;;;;;16.64;77.50;99356.16;5032502;28;20029;-72
2023/06/30 01:30:56;;;;;;;9.35;7.35;;;;;;;16.61;77.77;99350.50;5024741;28;20032;-73
2023/06/30 01:33:22;;;;;;;8.98;6.60;;;;;;;16.72;77.57;99356.28;5048601;28;20031;-73
2023/06/30 01:35:47;;;;;;;8.15;6.78;;;;;;;16.75;77.39;99364.00;5046363;28;20020;-72
2023/06/30 01:38:13;;;;;;;12.90;7.32;;;;;;;16.68;77.71;99351.41;5044564;28;20026;-72
2023/06/30 01:40:39;;;;;;;8.07;7.28;;;;;;;16.66;77.92;99350.97;5014412;28;20084;-72
2023/06/30 01:43:04;;;;;;;8.90;7.15;;;;;;;16.56;77.91;99351.63;5014205;28;20033;-72
2023/06/30 01:45:31;;;;;;;9.20;6.93;;;;;;;16.44;78.77;99354.66;5037213;28;20458;-72
2023/06/30 01:47:57;;;;;;;9.27;7.85;;;;;;;16.36;79.33;99350.91;5047557;28;20032;-72
2023/06/30 01:50:23;;;;;;;8.70;7.40;;;;;;;16.41;78.82;99345.75;5033800;28;20037;-72
2023/06/30 01:52:49;;;;;;;9.20;7.25;;;;;;;16.41;78.86;99350.56;5051945;28;20029;-72
2023/06/30 01:55:16;;;;;;;10.90;6.78;;;;;;;16.46;78.93;99341.75;5051963;28;20029;-72
2023/06/30 01:57:41;;;;;;;9.95;7.22;;;;;;;16.45;78.75;99342.16;5051496;28;20028;-73
2023/06/30 02:00:07;;;;;;;9.85;6.85;;;;;;;16.46;78.57;99338.94;5020491;28;20040;-72
2023/06/30 02:02:33;;;;;;;8.43;6.90;;;;;;;16.47;78.55;99345.41;5044224;28;20067;-73
2023/06/30 02:04:58;;;;;;;7.70;6.65;;;;;;;16.42;78.65;99336.09;5021540;28;20053;-72
2023/06/30 02:07:24;;;;;;;10.20;6.70;;;;;;;16.44;78.72;99337.72;5031791;28;20029;-72
2023/06/30 02:09:50;;;;;;;11.60;7.20;;;;;;;16.55;77.64;99341.53;5039739;28;20029;-72
2023/06/30 02:12:16;;;;;;;9.57;6.93;;;;;;;16.46;78.16;99344.59;5038123;28;20070;-73
2023/06/30 02:14:41;;;;;;;7.85;7.05;;;;;;;16.24;79.16;99338.59;5013918;28;20032;-73
2023/06/30 02:17:10;;;;;;;8.45;7.30;;;;;;;16.11;79.78;99337.97;5013302;28;20034;-72
2023/06/30 02:19:36;;;;;;;13.38;8.45;;;;;;;16.25;78.36;99333.75;5029560;28;20049;-72
2023/06/30 02:22:02;;;;;;;9.35;6.90;;;;;;;16.34;77.37;99342.78;5038461;28;20087;-72
2023/06/30 02:24:27;;;;;;;9.57;7.05;;;;;;;16.38;76.66;99334.41;5013865;28;20017;-73
2023/06/30 02:26:52;;;;;;;7.80;6.97;;;;;;;16.27;76.51;99342.66;5041983;28;20483;-72
2023/06/30 02:29:20;;;;;;;9.48;6.90;;;;;;;16.40;76.45;99346.13;5051416;28;20029;-72
2023/06/30 02:31:45;;;;;;;8.00;6.57;;;;;;;16.32;76.52;99338.72;5049666;28;20551;-72
2023/06/30 02:34:11;;;;;;;16.13;8.13;;;;;;;16.36;76.52;99354.53;5051025;28;20032;-73
2023/06/30 02:36:36;;;;;;;8.77;7.22;;;;;;;16.16;77.07;99342.50;5049815;28;20102;-73
2023/06/30 02:39:02;;;;;;;10.85;7.50;;;;;;;16.08;78.03;99347.19;5045335;28;20496;-72
2023/06/30 02:41:27;;;;;;;11.52;7.70;;;;;;;15.97;79.11;99357.47;5033019;28;20385;-72
2023/06/30 02:43:53;;;;;;;8.23;7.20;;;;;;;15.86;79.52;99355.22;5051124;28;20021;-73
2023/06/30 02:46:18;;;;;;;21.40;8.38;;;;;;;15.95;79.59;99355.00;5050843;28;20035;-73
2023/06/30 02:48:44;;;;;;;11.00;7.68;;;;;;;15.93;79.65;99350.94;5033166;28;20033;-72
2023/06/30 02:51:09;;;;;;;16.15;7.45;;;;;;;15.92;79.85;99355.75;5050849;28;20496;-72
2023/06/30 02:53:35;;;;;;;9.70;7.38;;;;;;;15.74;80.56;99361.03;5015319;28;20036;-72
2023/06/30 03:01:50;;;;;;;10.90;8.27;;;;;;;15.56;81.35;99350.19;5043083;28;20041;-72
2023/06/30 03:04:16;;;;;;;14.27;8.63;;;;;;;15.70;81.67;99358.13;5033212;28;20510;-72
2023/06/30 03:06:41;;;;;;;12.88;8.20;;;;;;;15.66;81.87;99356.44;5051009;28;20132;-72
2023/06/30 03:09:08;;;;;;;9.55;7.85;;;;;;;15.44;82.99;99350.34;5026729;28;20484;-72
2023/06/30 03:11:33;;;;;;;8.50;7.43;;;;;;;15.50;83.03;99362.97;5033561;28;20031;-72
2023/06/30 03:13:59;;;;;;;9.20;7.55;;;;;;;15.63;82.58;99358.00;5031071;28;20030;-72
2023/06/30 03:16:24;;;;;;;10.98;8.40;;;;;;;15.64;82.60;99358.81;5037998;28;20503;-74
2023/06/30 03:18:50;;;;;;;9.90;8.48;;;;;;;15.89;81.70;99361.31;5012551;28;20072;-74
2023/06/30 03:21:15;;;;;;;13.70;8.13;;;;;;;15.96;81.19;99355.84;5049385;28;20103;-73
2023/06/30 03:23:42;;;;;;;12.35;7.93;;;;;;;15.93;81.09;99359.41;5050892;28;20036;-76
2023/06/30 03:26:07;;;;;;;9.20;6.70;;;;;;;16.14;80.25;99353.34;5043481;28;20116;-77
2023/06/30 03:28:33;;;;;;;8.77;7.85;;;;;;;16.45;78.94;99356.28;5048389;28;20055;-73
2023/06/30 03:30:58;;;;;;;9.25;6.95;;;;;;;16.59;77.26;99359.31;5032746;28;20029;-75
2023/06/30 03:33:24;;;;;;;9.35;7.20;;;;;;;16.73;76.78;99363.56;5048308;28;20122;-76
2023/06/30 03:35:50;;;;;;;7.85;6.63;;;;;;;16.87;76.06;99355.31;5050887;28;20091;-76
2023/06/30 03:38:16;;;;;;;11.48;7.93;;;;;;;16.96;75.20;99357.88;5049566;28;20078;-79
2023/06/30 03:40:41;;;;;;;8.85;6.30;;;;;;;16.89;75.06;99364.22;5051994;28;20021;-77
2023/06/30 03:43:07;;;;;;;8.60;7.07;;;;;;;16.97;74.50;99363.13;5044297;28;20487;-76
2023/06/30 03:45:33;;;;;;;8.98;6.43;;;;;;;16.95;74.52;99354.22;5052196;28;20118;-76
2023/06/30 03:47:58;;;;;;;8.13;6.65;;;;;;;17.04;74.35;99358.81;5047414;28;20017;-77
2023/06/30 03:50:23;;;;;;;10.85;6.80;;;;;;;16.74;75.12;99354.72;5051721;28;20060;-77
2023/06/30 03:52:49;;;;;;;8.98;6.78;;;;;;;16.69;75.01;99355.84;5047703;28;20406;-77
2023/06/30 03:55:14;;;;;;;13.55;6.35;;;;;;;16.54;75.47;99356.84;5050763;28;20048;-77
2023/06/30 03:57:40;;;;;;;9.65;6.93;;;;;;;16.47;75.33;99351.06;5053149;28;20028;-77
2023/06/30 04:00:08;;;;;;;8.65;6.90;;;;;;;16.50;75.83;99358.75;5043239;28;20037;-77
2023/06/30 04:02:33;;;;;;;10.32;6.65;;;;;;;16.51;75.41;99357.56;5031815;28;20496;-76
2023/06/30 04:04:59;;;;;;;12.20;8.02;;;;;;;16.62;74.76;99352.13;5032249;28;20073;-77
2023/06/30 04:07:24;;;;;;;12.68;7.60;;;;;;;16.71;74.90;99361.09;5021572;28;20040;-77
2023/06/30 04:09:49;;;;;;;11.55;7.80;;;;;;;16.75;74.55;99347.06;5032445;28;20024;-77
2023/06/30 04:12:15;;;;;;;7.13;6.43;;;;;;;16.90;74.25;99356.56;5031622;28;20090;-77
2023/06/30 04:14:42;;;;;;;7.95;6.45;;;;;;;17.05;73.50;99358.41;5031087;28;20026;-77
2023/06/30 04:17:07;;;;;;;9.43;6.63;;;;;;;17.05;73.16;99364.06;5033684;28;20029;-77
2023/06/30 04:19:33;;;;;;;7.20;6.57;;;;;;;17.03;73.25;99365.66;5034079;28;20491;-77
2023/06/30 04:21:58;;;;;;;8.93;7.22;;;;;;;17.09;73.04;99364.13;5033843;28;20058;-77
2023/06/30 04:24:23;;;;;;;10.52;7.35;;;;;;;17.06;72.96;99367.72;5031464;28;20017;-77
2023/06/30 04:26:49;;;;;;;11.75;7.47;;;;;;;17.12;73.42;99361.34;5033846;28;20017;-77
2023/06/30 04:29:14;;;;;;;8.32;6.55;;;;;;;17.25;73.60;99367.59;5033794;28;20025;-77
2023/06/30 04:31:40;;;;;;;10.18;7.07;;;;;;;17.38;72.54;99364.53;5033917;28;20025;-76
2023/06/30 04:34:06;;;;;;;11.68;6.93;;;;;;;17.42;71.32;99371.03;5050144;28;20033;-80
2023/06/30 04:36:31;;;;;;;8.75;6.85;;;;;;;17.56;71.51;99366.75;5035703;28;20033;-76
2023/06/30 04:38:57;;;;;;;15.57;7.50;;;;;;;17.75;71.82;99360.94;5053709;28;20021;-77
2023/06/30 04:41:23;;;;;;;10.80;6.72;;;;;;;17.95;69.13;99353.06;5044450;28;20029;-78
2023/06/30 04:43:48;;;;;;;9.90;6.63;;;;;;;18.01;69.81;99356.34;5052854;28;20159;-75
2023/06/30 04:46:14;;;;;;;9.10;6.40;;;;;;;18.07;68.80;99357.63;5036736;28;20025;-75
2023/06/30 04:48:40;;;;;;;7.22;6.30;;;;;;;18.18;68.49;99362.59;5031021;28;20025;-75
2023/06/30 04:51:05;;;;;;;8.73;6.88;;;;;;;18.26;68.27;99363.47;5012936;28;20017;-75
2023/06/30 04:53:31;;;;;;;7.90;6.68;;;;;;;18.42;67.80;99363.22;5042228;28;20029;-75
2023/06/30 04:55:57;;;;;;;10.73;6.75;;;;;;;18.55;67.88;99367.38;5015618;28;20490;-75
2023/06/30 04:58:22;;;;;;;11.55;8.48;;;;;;;18.58;67.27;99365.78;5014124;28;20052;-75
2023/06/30 05:00:49;;;;;;;8.50;5.88;;;;;;;18.97;66.31;99370.13;5031130;28;20045;-75
2023/06/30 05:03:15;;;;;;;6.72;6.03;;;;;;;19.02;65.57;99358.41;5032282;28;20037;-75
2023/06/30 05:05:40;;;;;;;10.30;6.85;;;;;;;19.26;65.51;99370.28;5022830;28;20084;-75
2023/06/30 05:08:06;;;;;;;8.77;6.47;;;;;;;19.49;63.87;99373.66;5032236;28;20083;-75
2023/06/30 05:10:31;;;;;;;6.95;5.95;;;;;;;19.44;63.38;99359.88;5014666;28;20040;-75
2023/06/30 05:12:56;;;;;;;10.35;6.47;;;;;;;19.66;62.74;99367.66;5032917;28;20030;-75
2023/06/30 05:15:22;;;;;;;9.38;5.82;;;;;;;19.59;62.60;99366.38;5017294;28;20415;-75
2023/06/30 05:17:47;;;;;;;8.07;6.30;;;;;;;20.01;62.25;99354.81;5031123;28;20036;-75
2023/06/30 05:20:13;;;;;;;13.57;6.80;;;;;;;20.09;61.74;99361.31;5016762;28;20017;-75
2023/06/30 05:22:38;;;;;;;7.32;6.55;;;;;;;20.29;61.87;99358.88;5027019;28;20022;-76
2023/06/30 05:25:04;;;;;;;11.00;7.57;;;;;;;20.54;61.07;99363.75;5032254;28;20033;-76
2023/06/30 05:27:30;;;;;;;12.93;6.55;;;;;;;20.78;59.91;99359.28;5014074;28;20033;-76
2023/06/30 05:29:56;;;;;;;6.82;6.20;;;;;;;20.99;59.01;99363.34;5035888;28;20080;-75
2023/06/30 05:32:22;;;;;;;6.10;5.50;;;;;;;21.23;58.58;99363.69;5032526;28;20069;-76
2023/06/30 05:34:49;;;;;;;11.90;5.28;;;;;;;21.32;58.05;99359.19;5014388;28;20563;-76
2023/06/30 05:37:14;;;;;;;10.75;5.63;;;;;;;21.05;58.07;99356.03;5031094;28;20104;-76
2023/06/30 05:39:40;;;;;;;11.07;5.78;;;;;;;21.45;57.77;99359.53;5017642;28;20029;-75
2023/06/30 05:42:05;;;;;;;6.25;4.40;;;;;;;21.71;56.51;99368.00;5029258;28;20025;-74
2023/06/30 05:44:31;;;;;;;8.80;5.38;;;;;;;21.71;57.58;99359.47;5030903;28;20054;-75
2023/06/30 05:46:56;;;;;;;5.20;4.70;;;;;;;22.10;54.94;99369.03;5028947;28;20041;-74
2023/06/30 05:49:22;;;;;;;9.60;5.10;;;;;;;22.28;53.51;99360.34;5029197;28;20028;-73
2023/06/30 05:51:48;;;;;;;9.93;5.28;;;;;;;22.32;53.78;99358.28;5026483;28;20025;-71
2023/06/30 05:54:14;;;;;;;8.95;5.72;;;;;;;22.35;54.42;99359.50;5028797;28;20435;-74
2023/06/30 05:56:40;;;;;;;5.60;4.32;;;;;;;22.80;52.13;99356.66;5027857;28;20379;-75
2023/06/30 05:59:09;;;;;;;8.65;5.35;;;;;;;23.01;53.16;99360.53;5026940;28;20108;-76
2023/06/30 06:01:38;;;;;;;9.35;5.53;;;;;;;22.96;54.76;99361.00;5018114;28;20041;-77
2023/06/30 06:04:10;;;;;;;6.55;5.10;;;;;;;23.26;51.27;99353.75;5028630;28;21047;-74
2023/06/30 06:06:39;;;;;;;10.27;4.88;;;;;;;23.36;51.27;99358.56;5025230;28;20026;-74
2023/06/30 06:09:04;;;;;;;6.15;5.15;;;;;;;23.18;51.61;99367.28;5017270;28;20575;-75
2023/06/30 06:11:30;;;;;;;7.53;5.22;;;;;;;23.48;50.57;99364.94;5020513;28;20108;-73
2023/06/30 06:13:55;;;;;;;6.00;5.00;;;;;;;23.29;50.64;99352.97;5020399;28;20483;-75
2023/06/30 06:16:21;;;;;;;5.10;4.60;;;;;;;23.01;51.46;99360.53;5018368;28;20022;-75
2023/06/30 06:18:47;;;;;;;9.00;5.22;;;;;;;22.83;52.12;99363.56;5019157;28;20025;-75
2023/06/30 06:21:13;;;;;;;6.75;5.93;;;;;;;23.08;50.72;99359.66;5002714;28;20503;-73
2023/06/30 06:23:38;;;;;;;7.65;5.07;;;;;;;23.46;49.57;99361.72;5014264;28;20064;-75
2023/06/30 06:26:04;;;;;;;12.15;5.32;;;;;;;23.48;49.72;99360.06;5017550;28;20033;-76
2023/06/30 06:28:29;;;;;;;5.50;4.63;;;;;;;23.68;48.14;99357.34;5027587;28;20028;-76
2023/06/30 06:30:55;;;;;;;9.35;5.57;;;;;;;23.73;48.39;99355.25;5031831;28;20425;-76
2023/06/30 06:33:22;;;;;;;7.57;4.97;;;;;;;24.24;47.49;99361.09;5012379;28;20116;-76
2023/06/30 06:35:51;;;;;;;6.18;5.15;;;;;;;24.41;47.07;99364.91;5031637;28;20480;-76
2023/06/30 06:38:17;;;;;;;7.28;4.68;;;;;;;24.49;46.45;99357.03;5013815;28;20168;-75
2023/06/30 06:40:46;;;;;;;7.65;5.75;;;;;;;24.66;46.28;99355.91;5031620;28;20025;-76
2023/06/30 06:43:11;;;;;;;6.43;4.05;;;;;;;24.89;44.25;99344.94;5031542;28;20554;-76
2023/06/30 06:45:37;;;;;;;6.25;4.47;;;;;;;24.30;45.24;99355.69;5030518;28;20056;-76
2023/06/30 06:48:25;;;;;;;6.22;4.35;;;;;;;24.43;44.49;99353.03;5031470;28;20100;-76
2023/06/30 06:51:00;;;;;;;7.63;4.75;;;;;;;24.75;45.20;99348.81;5031487;28;20018;-75
2023/06/30 06:53:28;;;;;;;7.22;5.03;;;;;;;24.70;44.00;99355.84;5030124;28;20052;-76
2023/06/30 06:55:55;;;;;;;9.25;5.25;;;;;;;24.58;43.81;99353.59;5031115;28;20017;-76
2023/06/30 06:58:21;;;;;;;4.55;4.10;;;;;;;24.57;43.94;99354.84;5013576;28;20025;-76
2023/06/30 07:00:48;;;;;;;7.05;4.20;;;;;;;24.65;42.40;99356.34;5012975;28;20598;-76
2023/06/30 07:03:14;;;;;;;4.60;4.15;;;;;;;24.95;42.21;99351.75;5031299;28;20032;-76
2023/06/30 07:05:40;;;;;;;7.72;5.13;;;;;;;25.18;42.27;99352.94;5013073;28;20076;-77
2023/06/30 07:08:09;;;;;;;5.35;4.68;;;;;;;24.76;41.59;99354.09;5031071;28;20025;-76
2023/06/30 07:10:34;;;;;;;7.90;4.07;;;;;;;24.70;42.82;99349.31;5028158;28;20033;-79
2023/06/30 07:13:01;;;;;;;4.05;3.65;;;;;;;24.90;42.29;99350.19;5013626;28;20029;-80
2023/06/30 07:15:26;;;;;;;4.93;4.40;;;;;;;24.91;42.77;99342.44;5035132;28;20491;-82
2023/06/30 07:17:51;;;;;;;7.53;4.35;;;;;;;24.84;42.26;99346.22;5035492;28;20029;-73
2023/06/30 07:20:17;;;;;;;33.13;6.57;;;;;;;25.49;41.30;99345.00;5032808;28;20479;-75
2023/06/30 07:22:42;;;;;;;5.10;3.65;;;;;;;25.49;40.98;99341.34;5035254;28;20083;-76
2023/06/30 07:25:08;;;;;;;6.97;4.05;;;;;;;25.67;40.93;99340.13;5035136;28;20018;-77
2023/06/30 07:27:38;;;;;;;4.03;3.60;;;;;;;25.81;40.73;99344.75;5032816;28;20030;-77
2023/06/30 07:30:05;;;;;;;5.97;4.03;;;;;;;25.82;40.26;99337.75;5016177;28;20108;-77
2023/06/30 07:32:32;;;;;;;3.88;3.42;;;;;;;26.39;39.47;99327.03;5034243;28;20036;-76
2023/06/30 07:34:58;;;;;;;4.55;3.00;;;;;;;26.53;37.31;99336.50;5017156;28;20024;-79
2023/06/30 07:37:23;;;;;;;5.57;3.70;;;;;;;26.56;38.59;99329.91;5017424;28;20124;-79
2023/06/30 07:39:48;;;;;;;3.38;2.72;;;;;;;26.68;36.87;99337.78;5017045;28;20029;-79
2023/06/30 07:42:14;;;;;;;4.63;2.92;;;;;;;26.75;36.05;99328.19;5023557;28;20045;-76
2023/06/30 07:44:40;;;;;;;3.33;2.70;;;;;;;26.94;36.85;99337.94;5017159;28;20508;-76
2023/06/30 07:47:05;;;;;;;11.95;3.50;;;;;;;26.17;37.71;99338.97;5034837;28;20036;-77
2023/06/30 07:49:31;;;;;;;4.32;3.50;;;;;;;25.80;38.62;99343.94;5034633;28;20093;-75
2023/06/30 07:51:57;;;;;;;6.72;3.47;;;;;;;26.11;37.76;99335.06;5034448;28;20391;-75
2023/06/30 07:54:22;;;;;;;4.45;3.70;;;;;;;26.76;38.59;99332.66;5034661;28;20037;-76
2023/06/30 07:56:48;;;;;;;6.15;4.43;;;;;;;26.78;37.67;99324.41;5034708;28;20037;-75
2023/06/30 07:59:13;;;;;;;4.88;3.30;;;;;;;26.61;37.65;99332.22;5016863;28;20029;-75
2023/06/30 08:01:39;;;;;;;6.47;3.42;;;;;;;26.70;37.34;99329.53;5034354;28;20049;-76
2023/06/30 08:04:04;;;;;;;3.88;3.35;;;;;;;25.89;37.92;99326.16;5016749;28;20033;-78
2023/06/30 08:06:30;;;;;;;4.88;3.63;;;;;;;26.66;38.81;99317.31;5032646;28;20514;-84
2023/06/30 08:08:55;;;;;;;4.32;3.20;;;;;;;26.11;36.93;99317.03;5013509;28;20412;-82
2023/06/30 08:11:21;;;;;;;27.15;6.50;;;;;;;26.24;36.90;99315.09;5015034;28;20058;-82
2023/06/30 08:13:46;;;;;;;9.02;3.20;;;;;;;26.67;35.70;99318.97;5013304;28;20026;-82
2023/06/30 08:16:12;;;;;;;2.97;2.38;;;;;;;27.09;34.41;99314.59;4996737;28;20026;-82
2023/06/30 08:18:38;;;;;;;4.10;2.72;;;;;;;27.13;34.81;99313.22;5013349;28;20492;-82
2023/06/30 08:21:03;;;;;;;3.08;2.45;;;;;;;27.20;34.37;99309.34;5018550;28;20063;-83
2023/06/30 08:23:29;;;;;;;2.53;2.22;;;;;;;27.16;33.35;99300.84;5034197;28;20083;-86
2023/06/30 08:25:55;;;;;;;2.38;2.15;;;;;;;27.11;32.98;99304.28;5033377;28;20491;-84
2023/06/30 08:28:21;;;;;;;2.10;2.00;;;;;;;27.36;32.32;99296.19;5033752;28;20060;-80
2023/06/30 08:30:47;;;;;;;3.45;2.28;;;;;;;27.26;33.34;99307.53;5015298;28;20385;-83
2023/06/30 08:33:13;;;;;;;4.35;2.05;;;;;;;27.18;33.05;99306.13;5015932;28;20034;-84
2023/06/30 08:35:38;;;;;;;2.00;1.63;;;;;;;27.55;31.72;99294.41;5015973;28;20021;-85
2023/06/30 08:38:05;;;;;;;4.72;1.63;;;;;;;27.58;29.92;99305.00;5032564;28;20034;-84
2023/06/30 08:40:31;;;;;;;2.92;1.50;;;;;;;27.47;30.02;99286.00;5033824;28;20041;-84
2023/06/30 08:43:05;;;;;;;4.22;2.75;;;;;;;27.98;29.73;99293.09;5032438;28;20787;-83
2023/06/30 08:45:31;;;;;;;2.00;1.80;;;;;;;27.60;29.75;99302.47;5032832;28;20491;-77
2023/06/30 08:48:04;;;;;;;1.67;1.50;;;;;;;27.26;28.95;99296.03;5033500;28;20041;-77
2023/06/30 08:50:31;;;;;;;3.67;1.50;;;;;;;27.75;28.15;99295.03;5033348;28;20503;-76
2023/06/30 08:52:59;;;;;;;1.73;1.50;;;;;;;28.07;29.33;99295.25;5035028;28;20082;-83
2023/06/30 08:55:25;;;;;;;2.47;1.50;;;;;;;28.13;28.87;99299.16;5020903;28;20026;-77
2023/06/30 08:57:55;;;;;;;1.50;1.35;;;;;;;28.39;27.93;99286.84;5025283;28;20067;-82
2023/06/30 09:00:21;;;;;;;2.47;1.50;;;;;;;28.71;27.78;99290.69;5012838;28;20535;-75
2023/06/30 09:02:48;;;;;;;5.50;2.97;;;;;;;29.08;26.95;99278.69;5030348;28;20033;-77
2023/06/30 09:05:15;;;;;;;6.22;2.05;;;;;;;28.83;27.96;99272.59;5028279;28;20029;-79
2023/06/30 09:07:53;;;;;;;1.60;1.50;;;;;;;27.88;28.50;99277.81;5008806;28;20033;-79
2023/06/30 09:10:22;;;;;;;3.63;1.85;;;;;;;27.89;28.94;99273.66;5030626;28;20037;-81
2023/06/30 09:12:51;;;;;;;3.85;1.90;;;;;;;28.10;28.64;99277.06;5030713;28;20045;-78
2023/06/30 09:15:19;;;;;;;3.83;1.40;;;;;;;28.20;28.95;99269.41;5011442;28;20041;-78
2023/06/30 09:17:46;;;;;;;3.95;1.77;;;;;;;27.92;28.33;99263.28;5011170;28;20431;-80
2023/06/30 09:20:12;;;;;;;4.30;1.65;;;;;;;28.29;27.01;99260.88;5012693;28;20037;-78
2023/06/30 09:22:43;;;;;;;3.83;1.90;;;;;;;29.00;26.88;99244.44;5012415;28;20040;-78
2023/06/30 09:25:26;;;;;;;3.95;1.63;;;;;;;29.18;26.71;99242.94;5012339;28;20407;-78
2023/06/30 09:27:53;;;;;;;2.35;1.60;;;;;;;29.49;30.12;99245.09;5011796;28;20037;-78
2023/06/30 09:30:18;;;;;;;1.30;1.20;;;;;;;30.00;28.23;99243.06;5012022;28;20029;-78
2023/06/30 09:32:44;;;;;;;4.55;1.30;;;;;;;30.14;27.32;99252.41;5030129;28;20165;-78
2023/06/30 09:35:14;;;;;;;1.58;1.20;;;;;;;29.45;26.17;99234.97;5030000;28;20026;-79
2023/06/30 09:37:44;;;;;;;1.13;0.82;;;;;;;29.41;26.54;99235.91;5029272;28;20041;-79
2023/06/30 09:40:17;;;;;;;1.17;0.98;;;;;;;29.89;27.54;99225.41;5011940;28;20388;-79
2023/06/30 09:42:45;;;;;;;1.38;1.20;;;;;;;29.62;26.41;99221.94;5012509;28;20041;-78
2023/06/30 09:45:11;;;;;;;1.70;1.55;;;;;;;29.23;26.93;99215.63;5010661;28;20492;-78
2023/06/30 09:47:37;;;;;;;3.08;2.75;;;;;;;29.12;27.43;99224.69;4992906;28;20121;-79
2023/06/30 09:50:04;;;;;;;5.70;1.83;;;;;;;29.35;26.71;99223.38;4995358;28;20025;-80
2023/06/30 09:52:34;;;;;;;2.38;1.50;;;;;;;29.83;25.83;99205.88;5025659;28;20037;-81
2023/06/30 09:55:08;;;;;;;3.13;2.20;;;;;;;30.14;24.94;99217.81;5017240;28;20040;-82
2023/06/30 09:57:37;;;;;;;1.25;1.10;;;;;;;30.46;25.79;99225.06;5032255;28;20456;-76
2023/06/30 10:00:03;;;;;;;2.05;1.08;;;;;;;30.62;25.95;99218.19;5031949;28;20049;-76
2023/06/30 10:02:28;;;;;;;1.50;1.15;;;;;;;31.06;25.52;99216.28;5032153;28;20040;-76
2023/06/30 10:04:53;;;;;;;2.88;1.45;;;;;;;30.87;25.67;99210.53;5013205;28;20025;-77
2023/06/30 10:07:19;;;;;;;4.30;1.30;;;;;;;30.58;24.67;99211.78;5014378;28;20025;-76
2023/06/30 10:09:46;;;;;;;2.78;1.00;;;;;;;29.97;26.02;99210.22;5014344;28;20029;-76
2023/06/30 10:12:14;;;;;;;2.60;1.60;;;;;;;30.70;26.95;99203.50;5030048;28;20495;-77
2023/06/30 10:14:41;;;;;;;2.55;1.10;;;;;;;30.07;26.14;99201.63;5031725;28;20026;-76
2023/06/30 10:17:07;;;;;;;1.35;1.17;;;;;;;30.52;26.58;99196.38;5030894;28;20041;-76
2023/06/30 10:19:35;;;;;;;3.03;1.20;;;;;;;30.58;25.47;99185.81;5031742;28;20041;-76
2023/06/30 10:22:03;;;;;;;2.33;1.50;;;;;;;30.63;26.18;99181.50;5031791;28;20030;-77
2023/06/30 10:24:37;;;;;;;1.20;1.10;;;;;;;30.09;24.99;99185.47;5030413;28;20068;-74
2023/06/30 10:27:05;;;;;;;1.85;1.25;;;;;;;30.78;27.24;99173.81;5015467;28;20029;-77
2023/06/30 10:29:31;;;;;;;1.63;1.52;;;;;;;31.07;24.33;99183.22;5012909;28;20034;-77
2023/06/30 10:31:57;;;;;;;1.23;1.13;;;;;;;30.85;24.85;99169.78;5013958;28;20487;-78
2023/06/30 10:34:22;;;;;;;1.58;1.08;;;;;;;31.05;25.70;99157.72;5012738;28;20059;-78
2023/06/30 10:36:48;;;;;;;1.40;1.30;;;;;;;30.99;25.38;99168.34;5027087;28;20030;-78
2023/06/30 10:39:15;;;;;;;3.08;1.10;;;;;;;30.24;24.43;99158.88;5011489;28;20029;-74
2023/06/30 10:41:46;;;;;;;1.20;1.10;;;;;;;30.39;24.28;99161.94;5030406;28;20492;-75
2023/06/30 10:44:12;;;;;;;2.20;1.20;;;;;;;31.17;25.81;99166.69;5015296;28;20053;-75
2023/06/30 10:46:40;;;;;;;3.28;1.27;;;;;;;31.26;25.58;99155.13;5026372;28;20091;-75
2023/06/30 10:49:05;;;;;;;3.50;1.10;;;;;;;31.46;24.30;99163.22;5028918;28;20033;-75
2023/06/30 10:51:36;;;;;;;2.10;1.42;;;;;;;31.63;25.83;99157.06;5011647;28;20556;-75
2023/06/30 10:54:01;;;;;;;1.63;1.15;;;;;;;31.17;24.92;99158.81;5022873;28;20030;-75
2023/06/30 10:56:28;;;;;;;2.38;1.17;;;;;;;31.58;24.99;99157.72;5011333;28;20408;-75
2023/06/30 10:58:58;;;;;;;3.17;1.52;;;;;;;31.50;24.82;99158.09;5031374;28;20030;-75
2023/06/30 11:01:23;;;;;;;2.60;1.20;;;;;;;31.72;24.77;99142.56;5025658;28;20052;-75
2023/06/30 11:03:58;;;;;;;1.13;0.93;;;;;;;31.00;22.59;99149.72;5020102;28;20030;-75
2023/06/30 11:06:24;;;;;;;3.28;1.88;;;;;;;30.23;24.81;99134.22;5028884;28;20017;-75
2023/06/30 11:09:00;;;;;;;2.78;1.30;;;;;;;31.34;23.93;99133.28;5031247;28;20029;-75
2023/06/30 11:11:27;;;;;;;1.30;1.20;;;;;;;31.68;24.74;99132.47;5013366;28;20380;-75
2023/06/30 11:14:12;;;;;;;2.50;1.17;;;;;;;31.15;22.49;99125.94;5029167;28;20462;-75
2023/06/30 11:17:01;;;;;;;1.98;1.58;;;;;;;31.41;25.16;99126.34;5030442;28;20037;-75
2023/06/30 11:19:27;;;;;;;1.30;1.20;;;;;;;31.85;24.64;99119.22;5031145;28;20569;-75
2023/06/30 11:22:25;;;;;;;1.27;1.17;;;;;;;32.11;24.57;99126.63;5030836;28;20025;-75
2023/06/30 11:24:51;;;;;;;4.32;1.48;;;;;;;31.98;25.13;99116.09;4985688;28;20040;-75
2023/06/30 11:27:18;;;;;;;2.65;1.45;;;;;;;31.56;25.39;99106.22;5013222;28;20112;-75
2023/06/30 11:29:44;;;;;;;4.32;1.40;;;;;;;32.08;24.93;99111.84;5029272;28;20111;-75
2023/06/30 11:32:09;;;;;;;2.53;1.20;;;;;;;32.42;24.72;99105.16;5010966;28;20048;-75
2023/06/30 11:34:35;;;;;;;6.53;1.50;;;;;;;32.25;24.71;99102.72;5029685;28;20032;-75
2023/06/30 11:37:05;;;;;;;3.92;1.48;;;;;;;32.29;25.71;99096.75;5031029;28;20025;-75